createdAt,value
2022-08-05T00:02:21.643Z,1.10
2022-08-05T00:06:29.500Z,1.50
2022-08-05T00:10:35.265Z,1.13
2022-08-05T00:14:38.099Z,1.10
2022-08-05T00:18:45.738Z,1.10
2022-08-05T00:22:58.451Z,1.70
2022-08-05T00:27:04.650Z,1.57
2022-08-05T00:31:12.863Z,1.10
2022-08-05T00:35:15.109Z,1.63
2022-08-05T00:39:24.536Z,1.53
2022-08-05T00:43:27.638Z,1.67
2022-08-05T00:47:56.706Z,1.60
2022-08-05T00:52:00.737Z,1.80
2022-08-05T00:56:03.046Z,1.27
2022-08-05T01:00:07.426Z,1.20
2022-08-05T01:04:15.713Z,1.40
2022-08-05T01:08:43.332Z,1.27
2022-08-05T01:13:05.257Z,0.90
2022-08-05T01:17:45.090Z,1.20
2022-08-05T01:22:15.436Z,1.40
2022-08-05T01:26:33.284Z,1.40
2022-08-05T01:30:39.805Z,1.47
2022-08-05T01:35:01.047Z,1.30
2022-08-05T01:39:03.068Z,1.83
2022-08-05T01:43:07.166Z,1.70
2022-08-05T01:47:38.607Z,1.30
2022-08-05T01:51:43.525Z,1.50
2022-08-05T01:55:59.096Z,1.70
2022-08-05T02:00:12.014Z,1.33
2022-08-05T02:04:16.850Z,1.40
2022-08-05T02:08:31.173Z,1.23
2022-08-05T02:12:58.329Z,1.70
2022-08-05T02:17:17.049Z,1.70
2022-08-05T02:21:43.510Z,1.63
2022-08-05T02:25:52.588Z,1.40
2022-08-05T02:29:58.434Z,1.60
2022-08-05T02:34:10.102Z,1.77
2022-08-05T02:38:19.314Z,1.30
2022-08-05T02:42:25.923Z,1.27
2022-08-05T02:46:29.365Z,1.33
2022-08-05T02:50:32.158Z,1.17
2022-08-05T02:54:37.438Z,1.87
2022-08-05T02:58:43.476Z,1.50
2022-08-05T03:02:47.949Z,1.90
2022-08-05T03:06:53.819Z,1.40
2022-08-05T03:11:54.922Z,1.53
2022-08-05T03:15:24.294Z,1.67
2022-08-05T03:19:34.184Z,1.63
2022-08-05T03:23:43.194Z,1.17
2022-08-05T03:27:59.887Z,1.80
2022-08-05T03:32:04.773Z,1.90
2022-08-05T03:36:12.080Z,1.43
2022-08-05T03:40:15.546Z,1.83
2022-08-05T03:44:29.011Z,1.67
2022-08-05T03:48:35.116Z,1.60
2022-08-05T03:55:07.165Z,1.73
2022-08-05T03:57:28.986Z,1.70
2022-08-05T04:01:48.152Z,1.30
2022-08-05T04:05:51.670Z,1.53
2022-08-05T04:09:55.362Z,1.47
2022-08-05T04:13:57.927Z,1.33
2022-08-05T04:18:07.234Z,1.37
2022-08-05T04:22:12.593Z,1.50
2022-08-05T04:26:15.602Z,1.30
2022-08-05T04:30:19.966Z,1.50
2022-08-05T04:34:33.784Z,1.73
2022-08-05T04:38:39.995Z,3.47
2022-08-05T04:42:42.748Z,16.45
2022-08-05T04:46:48.805Z,4.15
2022-08-05T04:51:01.579Z,2.97
2022-08-05T04:55:14.322Z,2.13
2022-08-05T04:59:23.896Z,2.22
2022-08-05T05:03:42.069Z,1.45
2022-08-05T05:07:45.709Z,1.30
2022-08-05T05:12:00.277Z,1.83
2022-08-05T05:16:07.154Z,1.40
2022-08-05T05:20:10.676Z,1.65
2022-08-05T05:24:14.284Z,1.42
2022-08-05T05:28:20.055Z,1.70
2022-08-05T05:32:23.627Z,1.33
2022-08-05T05:36:28.400Z,1.52
2022-08-05T05:40:32.218Z,1.40
2022-08-05T05:44:42.963Z,1.50
2022-08-05T05:48:48.998Z,2.13
2022-08-05T05:52:51.836Z,1.80
2022-08-05T05:56:54.465Z,1.85
2022-08-05T06:00:57.053Z,1.85
2022-08-05T06:04:59.756Z,1.80
2022-08-05T06:09:05.411Z,1.80
2022-08-05T06:13:08.593Z,2.10
2022-08-05T06:17:24.358Z,2.15
2022-08-05T06:21:35.986Z,1.80
2022-08-05T06:26:12.339Z,2.22
2022-08-05T06:30:07.402Z,1.70
2022-08-05T06:34:22.270Z,2.20
2022-08-05T06:38:35.567Z,2.40
2022-08-05T06:42:40.415Z,2.25
2022-08-05T06:46:42.605Z,2.83
2022-08-05T06:50:45.477Z,2.60
2022-08-05T06:54:52.137Z,2.03
2022-08-05T06:58:56.259Z,2.60
2022-08-05T07:02:59.904Z,2.90
2022-08-05T07:07:03.744Z,2.60
2022-08-05T07:11:15.206Z,2.53
2022-08-05T07:16:01.592Z,2.90
2022-08-05T07:24:24.037Z,3.40
2022-08-05T07:28:31.245Z,3.30
2022-08-05T07:32:38.432Z,2.93
2022-08-05T07:36:40.832Z,3.00
2022-08-05T07:40:44.528Z,2.83
2022-08-05T07:44:48.550Z,3.93
2022-08-05T07:49:02.529Z,3.37
2022-08-05T07:53:07.045Z,3.10
2022-08-05T07:57:14.044Z,3.10
2022-08-05T08:01:27.951Z,2.97
2022-08-05T08:05:32.317Z,3.63
2022-08-05T08:09:41.855Z,2.83
2022-08-05T08:13:49.590Z,3.20
2022-08-05T08:18:05.923Z,3.07
2022-08-05T08:22:11.054Z,2.33
2022-08-05T08:26:29.253Z,2.60
2022-08-05T08:30:40.761Z,2.67
2022-08-05T08:34:50.109Z,2.63
2022-08-05T08:38:55.621Z,2.73
2022-08-05T08:45:17.036Z,2.80
2022-08-05T08:48:05.947Z,2.45
2022-08-05T08:52:23.524Z,2.50
2022-08-05T08:56:27.401Z,3.25
2022-08-05T09:00:30.540Z,3.22
2022-08-05T09:04:58.313Z,2.60
2022-08-05T09:09:02.482Z,2.35
2022-08-05T09:13:05.270Z,2.15
2022-08-05T09:17:40.950Z,2.80
2022-08-05T09:22:23.367Z,2.78
2022-08-05T09:26:10.815Z,2.20
2022-08-05T09:30:23.787Z,2.22
2022-08-05T09:34:26.259Z,2.10
2022-08-05T09:38:29.744Z,2.67
2022-08-05T09:42:41.177Z,2.05
2022-08-05T09:46:51.649Z,2.22
2022-08-05T09:51:14.934Z,2.00
2022-08-05T09:55:58.313Z,1.85
2022-08-05T09:59:40.178Z,1.67
2022-08-05T10:04:03.638Z,1.58
2022-08-05T10:08:34.999Z,1.30
2022-08-05T10:12:33.295Z,1.35
2022-08-05T10:16:52.221Z,1.80
2022-08-05T10:21:11.872Z,1.52
2022-08-05T10:25:19.418Z,1.60
2022-08-05T10:29:23.982Z,1.75
2022-08-05T10:33:45.307Z,1.38
2022-08-05T10:37:55.634Z,2.10
2022-08-05T10:42:08.057Z,1.77
2022-08-05T10:46:19.093Z,1.60
2022-08-05T10:50:36.272Z,1.65
2022-08-05T10:55:05.766Z,1.67
2022-08-05T11:00:03.195Z,1.67
2022-08-05T11:04:12.383Z,1.70
2022-08-05T11:08:33.894Z,1.77
2022-08-05T11:12:41.141Z,1.80
2022-08-05T11:16:56.081Z,2.00
2022-08-05T11:21:03.588Z,1.92
2022-08-05T11:26:05.450Z,1.88
2022-08-05T11:30:00.732Z,1.95
2022-08-05T11:34:06.265Z,1.60
2022-08-05T11:38:36.817Z,1.58
2022-08-05T11:42:37.809Z,1.67
2022-08-05T11:47:09.911Z,1.70
2022-08-05T11:51:06.073Z,1.73
2022-08-05T11:55:10.688Z,1.65
2022-08-05T11:59:26.565Z,1.73
2022-08-05T12:03:31.966Z,1.73
2022-08-05T12:08:08.132Z,1.75
2022-08-05T12:11:59.525Z,1.88
2022-08-05T12:16:14.713Z,1.90
2022-08-05T12:20:28.569Z,1.73
2022-08-05T12:24:41.542Z,1.50
2022-08-05T12:28:51.930Z,1.70
2022-08-05T12:32:56.354Z,1.42
2022-08-05T12:37:17.659Z,1.63
2022-08-05T12:41:24.391Z,1.33
2022-08-05T12:45:42.692Z,1.23
2022-08-05T12:50:03.937Z,1.52
2022-08-05T12:54:14.811Z,1.30
2022-08-05T12:58:48.358Z,1.40
2022-08-05T13:02:47.444Z,1.40
2022-08-05T13:07:02.114Z,1.25
2022-08-05T13:11:18.204Z,1.45
2022-08-05T13:15:50.640Z,1.33
2022-08-05T13:20:20.382Z,1.45
2022-08-05T13:24:36.437Z,1.20
2022-08-05T13:28:48.006Z,1.58
2022-08-05T13:32:56.412Z,1.27
2022-08-05T13:37:00.381Z,1.60
2022-08-05T13:41:04.141Z,1.30
2022-08-05T13:45:07.959Z,1.58
2022-08-05T13:49:12.958Z,1.75
2022-08-05T13:53:15.966Z,1.42
2022-08-05T13:57:18.569Z,1.38
2022-08-05T14:01:27.428Z,1.40
2022-08-05T14:06:04.812Z,1.75
2022-08-05T14:10:18.708Z,1.75
2022-08-05T14:14:33.789Z,1.75
2022-08-05T14:18:36.296Z,1.40
2022-08-05T14:22:40.390Z,1.80
2022-08-05T14:27:08.764Z,1.40
2022-08-05T14:31:17.479Z,1.52
2022-08-05T14:35:50.283Z,1.63
2022-08-05T14:39:58.900Z,1.60
2022-08-05T14:44:10.071Z,1.42
2022-08-05T14:48:33.246Z,1.50
2022-08-05T14:52:52.474Z,1.42
2022-08-05T14:56:56.565Z,1.13
2022-08-05T15:01:00.388Z,1.08
2022-08-05T15:05:08.613Z,1.00
2022-08-05T15:09:15.844Z,1.10
2022-08-05T15:13:18.147Z,1.23
2022-08-05T15:17:47.709Z,1.20
2022-08-05T15:21:42.955Z,1.20
2022-08-05T15:25:52.692Z,1.30
2022-08-05T15:29:57.846Z,1.15
2022-08-05T15:34:19.508Z,1.20
2022-08-05T15:38:34.570Z,1.80
2022-08-05T15:42:54.208Z,1.10
2022-08-05T15:47:04.437Z,1.35
2022-08-05T15:51:07.739Z,0.95
2022-08-05T15:55:16.129Z,1.30
2022-08-05T15:59:22.216Z,1.30
2022-08-05T16:03:27.007Z,1.40
2022-08-05T16:07:29.646Z,1.10
2022-08-05T16:11:42.545Z,1.15
2022-08-05T16:15:45.878Z,1.27
2022-08-05T16:20:04.219Z,1.35
2022-08-05T16:24:34.927Z,0.90
2022-08-05T16:28:36.462Z,1.30
2022-08-05T16:32:43.941Z,1.08
2022-08-05T16:36:46.853Z,1.10
2022-08-05T16:40:55.515Z,1.20
2022-08-05T16:45:05.991Z,1.40
2022-08-05T16:49:26.667Z,1.30
2022-08-05T16:53:32.462Z,1.27
2022-08-05T16:58:01.394Z,1.40
2022-08-05T17:02:05.581Z,1.50
2022-08-05T17:06:08.083Z,1.23
2022-08-05T17:10:10.593Z,1.40
2022-08-05T17:14:13.113Z,1.20
2022-08-05T17:18:25.550Z,1.33
2022-08-05T17:22:28.162Z,1.08
2022-08-05T17:26:30.595Z,1.27
2022-08-05T17:30:32.570Z,1.60
2022-08-05T17:34:35.144Z,1.48
2022-08-05T17:38:37.726Z,1.37
2022-08-05T17:42:51.233Z,1.43
2022-08-05T17:46:54.624Z,1.53
2022-08-05T17:50:57.399Z,1.70
2022-08-05T17:55:02.929Z,1.57
2022-08-05T17:59:06.307Z,2.03
2022-08-05T18:03:08.607Z,1.30
2022-08-05T18:07:13.831Z,2.37
2022-08-05T18:11:24.199Z,2.30
2022-08-05T18:15:34.676Z,2.70
2022-08-05T18:19:38.283Z,2.53
2022-08-05T18:23:47.108Z,2.70
2022-08-05T18:27:52.370Z,2.73
2022-08-05T18:31:55.740Z,2.50
2022-08-05T18:36:03.394Z,2.80
2022-08-05T18:41:50.008Z,2.40
2022-08-05T18:44:51.509Z,2.70
2022-08-05T18:49:20.539Z,2.70
2022-08-05T18:53:25.282Z,2.70
2022-08-05T18:57:28.555Z,2.77
2022-08-05T19:01:48.107Z,2.57
2022-08-05T19:06:11.562Z,2.50
2022-08-05T19:10:28.134Z,2.57
2022-08-05T19:14:53.502Z,2.23
2022-08-05T19:18:56.683Z,2.03
2022-08-05T19:22:59.323Z,2.07
2022-08-05T19:27:04.135Z,2.70
2022-08-05T19:31:09.490Z,2.40
2022-08-05T19:35:16.034Z,2.83
2022-08-05T19:39:18.571Z,2.63
2022-08-05T19:44:04.707Z,3.00
2022-08-05T19:47:45.876Z,3.00
2022-08-05T19:52:13.241Z,2.90
2022-08-05T19:56:37.901Z,2.97
2022-08-05T20:00:42.901Z,3.10
2022-08-05T20:04:46.350Z,2.53
2022-08-05T20:08:51.916Z,3.40
2022-08-05T20:12:55.600Z,3.23
2022-08-05T20:16:59.369Z,3.87
2022-08-05T20:21:09.352Z,2.90
2022-08-05T20:25:11.324Z,3.30
2022-08-05T20:29:26.728Z,3.07
2022-08-05T20:33:31.078Z,3.07
2022-08-05T20:38:07.743Z,3.13
2022-08-05T20:41:55.759Z,3.30
2022-08-05T20:46:02.562Z,3.13
2022-08-05T20:50:07.342Z,2.60
2022-08-05T20:54:14.048Z,2.90
2022-08-05T20:58:16.886Z,2.60
2022-08-05T21:02:18.813Z,2.13
2022-08-05T21:06:30.068Z,2.50
2022-08-05T21:10:33.142Z,3.00
2022-08-05T21:14:36.058Z,3.10
2022-08-05T21:18:38.594Z,3.13
2022-08-05T21:22:46.994Z,3.90
2022-08-05T21:26:53.669Z,3.87
2022-08-05T21:31:01.502Z,5.20
2022-08-05T21:35:09.063Z,4.13
2022-08-05T21:39:26.681Z,3.97
2022-08-05T21:43:41.494Z,4.20
2022-08-05T21:47:56.722Z,4.27
2022-08-05T21:52:22.218Z,4.53
2022-08-05T21:56:22.415Z,3.90
2022-08-05T22:00:28.577Z,3.87
2022-08-05T22:04:30.736Z,3.37
2022-08-05T22:08:33.066Z,4.20
2022-08-05T22:12:40.171Z,4.07
2022-08-05T22:16:51.236Z,3.77
2022-08-05T22:20:55.959Z,4.33
2022-08-05T22:25:23.977Z,3.97
2022-08-05T22:29:33.045Z,3.80
2022-08-05T22:33:57.168Z,4.33
2022-08-05T22:37:59.308Z,3.77
2022-08-05T22:42:12.259Z,4.03
2022-08-05T22:46:23.195Z,3.50
2022-08-05T22:50:27.679Z,3.40
2022-08-05T22:54:30.451Z,3.73
2022-08-05T22:58:33.232Z,3.53
2022-08-05T23:02:39.921Z,3.70
2022-08-05T23:06:49.008Z,3.93
2022-08-05T23:10:56.059Z,3.20
2022-08-05T23:14:59.517Z,3.37
2022-08-05T23:19:05.399Z,3.57
2022-08-05T23:23:12.138Z,3.60
2022-08-05T23:27:15.859Z,3.77
2022-08-05T23:31:22.113Z,3.50
2022-08-05T23:35:24.855Z,3.60
2022-08-05T23:39:53.806Z,3.27
2022-08-05T23:44:06.467Z,3.27
2022-08-05T23:48:11.747Z,3.70
2022-08-05T23:52:30.766Z,3.57
2022-08-05T23:56:34.017Z,3.37
